createdAt,value
2023-02-06T00:00:08.161Z,9.57
2023-02-06T00:02:10.595Z,7.43
2023-02-06T00:04:13.587Z,10.88
2023-02-06T00:06:16.314Z,8.55
2023-02-06T00:08:18.739Z,7.22
2023-02-06T00:10:21.181Z,8.40
2023-02-06T00:12:24.077Z,8.88
2023-02-06T00:14:26.536Z,9.13
2023-02-06T00:16:33.513Z,8.05
2023-02-06T00:18:35.984Z,7.28
2023-02-06T00:20:38.893Z,7.15
2023-02-06T00:22:41.723Z,7.63
2023-02-06T00:24:44.107Z,8.45
2023-02-06T00:26:46.602Z,7.90
2023-02-06T00:28:49.308Z,7.38
2023-02-06T00:30:51.857Z,8.10
2023-02-06T00:32:54.324Z,8.02
2023-02-06T00:34:56.766Z,8.18
2023-02-06T00:36:59.216Z,7.45
2023-02-06T00:39:01.865Z,8.02
2023-02-06T00:41:04.567Z,7.55
2023-02-06T00:43:07.341Z,7.70
2023-02-06T00:45:10.636Z,8.07
2023-02-06T00:47:13.037Z,7.15
2023-02-06T00:49:15.837Z,8.65
2023-02-06T00:51:18.245Z,7.03
2023-02-06T00:53:20.746Z,8.18
2023-02-06T00:55:23.331Z,7.43
2023-02-06T00:57:25.765Z,7.95
2023-02-06T00:59:28.145Z,8.00
2023-02-06T01:01:30.655Z,6.93
2023-02-06T01:03:33.094Z,7.45
2023-02-06T01:05:35.769Z,8.63
2023-02-06T01:07:39.875Z,7.63
2023-02-06T01:09:42.454Z,8.35
2023-02-06T01:11:44.878Z,8.52
2023-02-06T01:13:47.856Z,7.05
2023-02-06T01:15:51.277Z,7.47
2023-02-06T01:17:53.942Z,6.18
2023-02-06T01:19:56.361Z,8.02
2023-02-06T01:21:58.871Z,8.23
2023-02-06T01:24:01.327Z,8.30
2023-02-06T01:26:07.860Z,9.00
2023-02-06T01:28:10.339Z,8.02
2023-02-06T01:30:13.382Z,8.32
2023-02-06T01:32:15.801Z,8.02
2023-02-06T01:34:18.172Z,7.55
2023-02-06T01:36:21.467Z,6.72
2023-02-06T01:38:23.896Z,8.20
2023-02-06T01:40:26.350Z,8.40
2023-02-06T01:42:28.752Z,7.57
2023-02-06T01:44:32.647Z,7.28
2023-02-06T01:46:35.387Z,8.35
2023-02-06T01:48:44.784Z,9.73
2023-02-06T01:50:50.645Z,8.75
2023-02-06T01:52:53.088Z,8.95
2023-02-06T01:54:59.659Z,7.47
2023-02-06T01:57:06.205Z,8.98
2023-02-06T01:59:08.657Z,8.43
2023-02-06T02:01:11.483Z,7.72
2023-02-06T02:03:14.164Z,7.82
2023-02-06T02:05:18.328Z,7.25
2023-02-06T02:08:02.314Z,9.88
2023-02-06T02:10:05.573Z,7.60
2023-02-06T02:12:08.052Z,7.35
2023-02-06T02:14:13.776Z,9.38
2023-02-06T02:16:33.679Z,8.25
2023-02-06T02:18:49.709Z,9.73
2023-02-06T02:21:06.511Z,7.85
2023-02-06T02:23:11.883Z,8.07
2023-02-06T02:25:23.557Z,6.88
2023-02-06T02:27:59.071Z,8.18
2023-02-06T02:30:13.224Z,7.68
2023-02-06T02:32:57.623Z,7.80
2023-02-06T02:35:05.876Z,6.90
2023-02-06T02:37:33.146Z,7.55
2023-02-06T02:39:56.203Z,6.53
2023-02-06T02:42:27.703Z,7.20
2023-02-06T02:45:11.605Z,7.80
2023-02-06T02:47:16.317Z,7.60
2023-02-06T02:49:21.973Z,7.43
2023-02-06T02:51:25.466Z,8.13
2023-02-06T02:53:28.062Z,9.38
2023-02-06T02:55:30.498Z,9.88
2023-02-06T02:57:33.280Z,8.00
2023-02-06T02:59:40.487Z,7.80
2023-02-06T03:01:56.131Z,8.57
2023-02-06T03:04:02.657Z,8.95
2023-02-06T03:06:39.611Z,9.02
2023-02-06T03:09:00.762Z,8.05
2023-02-06T03:11:03.123Z,8.10
2023-02-06T03:13:17.561Z,8.23
2023-02-06T03:15:27.527Z,7.13
2023-02-06T03:17:38.275Z,7.90
2023-02-06T03:19:49.362Z,7.57
2023-02-06T03:21:51.831Z,7.07
2023-02-06T03:23:57.332Z,7.13
2023-02-06T03:26:02.309Z,8.13
2023-02-06T03:28:07.690Z,6.85
2023-02-06T03:30:13.025Z,7.68
2023-02-06T03:32:28.469Z,8.05
2023-02-06T03:35:01.974Z,5.85
2023-02-06T03:37:04.414Z,7.43
2023-02-06T03:39:06.838Z,8.68
2023-02-06T03:41:09.427Z,7.47
2023-02-06T03:43:18.594Z,7.32
2023-02-06T03:45:31.040Z,7.30
2023-02-06T03:47:34.755Z,8.65
2023-02-06T03:49:39.400Z,7.75
2023-02-06T03:51:54.061Z,9.55
2023-02-06T03:53:57.916Z,6.10
2023-02-06T03:56:07.025Z,6.18
2023-02-06T03:58:12.534Z,9.18
2023-02-06T04:00:15.389Z,8.57
2023-02-06T04:02:18.418Z,8.30
2023-02-06T04:04:28.843Z,9.15
2023-02-06T04:06:31.295Z,9.20
2023-02-06T04:08:33.712Z,6.90
2023-02-06T04:10:36.036Z,6.43
2023-02-06T04:12:38.497Z,6.97
2023-02-06T04:14:41.460Z,7.28
2023-02-06T04:16:43.946Z,8.10
2023-02-06T04:18:46.349Z,9.65
2023-02-06T04:20:48.784Z,8.15
2023-02-06T04:22:51.224Z,8.88
2023-02-06T04:24:53.617Z,6.50
2023-02-06T04:26:56.040Z,10.02
2023-02-06T04:28:58.522Z,7.65
2023-02-06T04:31:01.015Z,8.18
2023-02-06T04:33:03.729Z,8.52
2023-02-06T04:35:09.280Z,8.70
2023-02-06T04:37:14.607Z,10.27
2023-02-06T04:39:17.073Z,9.07
2023-02-06T04:41:19.485Z,9.25
2023-02-06T04:43:21.823Z,9.75
2023-02-06T04:45:24.221Z,8.55
2023-02-06T04:47:26.741Z,7.72
2023-02-06T04:49:29.107Z,8.00
2023-02-06T04:51:31.462Z,8.02
2023-02-06T04:53:34.336Z,8.88
2023-02-06T04:55:37.156Z,9.18
2023-02-06T04:57:39.783Z,6.93
2023-02-06T04:59:42.137Z,8.02
2023-02-06T05:01:44.645Z,7.97
2023-02-06T05:03:47.655Z,8.93
2023-02-06T05:05:50.384Z,9.43
2023-02-06T05:07:52.837Z,7.97
2023-02-06T05:09:55.240Z,9.23
2023-02-06T05:11:57.697Z,9.60
2023-02-06T05:14:00.112Z,15.30
2023-02-06T05:16:12.907Z,11.50
2023-02-06T05:18:15.820Z,8.02
2023-02-06T05:20:18.644Z,7.72
2023-02-06T05:22:21.044Z,8.93
2023-02-06T05:24:23.433Z,8.95
2023-02-06T05:26:25.826Z,9.57
2023-02-06T05:28:30.042Z,8.88
2023-02-06T05:30:34.266Z,8.85
2023-02-06T05:32:36.654Z,7.25
2023-02-06T05:34:39.138Z,8.55
2023-02-06T05:36:41.590Z,8.70
2023-02-06T05:38:44.044Z,8.18
2023-02-06T05:40:46.564Z,7.93
2023-02-06T05:42:48.999Z,8.27
2023-02-06T05:44:51.400Z,9.23
2023-02-06T05:46:54.322Z,8.60
2023-02-06T05:48:56.711Z,8.02
2023-02-06T05:50:59.083Z,11.40
2023-02-06T05:53:01.548Z,9.68
2023-02-06T05:55:03.993Z,8.82
2023-02-06T05:57:06.412Z,8.52
2023-02-06T05:59:08.865Z,8.60
2023-02-06T06:01:12.601Z,9.32
2023-02-06T06:03:15.092Z,11.02
2023-02-06T06:05:17.592Z,10.00
2023-02-06T06:07:19.982Z,10.07
2023-02-06T06:09:22.419Z,10.77
2023-02-06T06:11:24.977Z,12.15
2023-02-06T06:13:27.346Z,10.77
2023-02-06T06:15:29.998Z,10.25
2023-02-06T06:17:32.407Z,11.00
2023-02-06T06:19:34.883Z,8.60
2023-02-06T06:21:37.412Z,9.75
2023-02-06T06:23:39.857Z,9.93
2023-02-06T06:25:42.332Z,10.30
2023-02-06T06:27:44.851Z,10.55
2023-02-06T06:29:47.866Z,8.85
2023-02-06T06:31:50.339Z,7.75
2023-02-06T06:33:54.288Z,8.95
2023-02-06T06:35:56.811Z,9.23
2023-02-06T06:37:59.180Z,10.63
2023-02-06T06:40:01.593Z,9.68
2023-02-06T06:42:04.547Z,10.02
2023-02-06T06:44:06.905Z,12.02
2023-02-06T06:46:09.733Z,9.55
2023-02-06T06:48:12.369Z,10.75
2023-02-06T06:50:14.899Z,8.68
2023-02-06T06:52:24.827Z,11.18
2023-02-06T06:54:28.122Z,8.43
2023-02-06T06:56:30.587Z,9.40
2023-02-06T06:58:33.521Z,8.20
2023-02-06T07:00:36.257Z,9.15
2023-02-06T07:02:39.934Z,9.98
2023-02-06T07:04:42.583Z,8.70
2023-02-06T07:06:45.038Z,9.05
2023-02-06T07:08:47.462Z,9.98
2023-02-06T07:10:49.882Z,9.15
2023-02-06T07:12:56.640Z,8.38
2023-02-06T07:14:59.124Z,8.65
2023-02-06T07:17:01.863Z,10.77
2023-02-06T07:19:04.421Z,9.23
2023-02-06T07:21:08.910Z,9.32
2023-02-06T07:23:11.338Z,10.32
2023-02-06T07:25:13.812Z,10.63
2023-02-06T07:27:16.291Z,10.45
2023-02-06T07:29:18.764Z,9.60
2023-02-06T07:31:21.496Z,9.32
2023-02-06T07:33:23.987Z,11.88
2023-02-06T07:35:26.465Z,10.75
2023-02-06T07:37:28.958Z,12.25
2023-02-06T07:39:31.441Z,11.27
2023-02-06T07:41:33.935Z,12.70
2023-02-06T07:43:36.501Z,11.65
2023-02-06T07:45:39.312Z,10.40
2023-02-06T07:47:42.396Z,12.98
2023-02-06T07:49:44.794Z,9.77
2023-02-06T07:51:47.876Z,9.70
2023-02-06T07:53:50.285Z,10.18
2023-02-06T07:55:52.866Z,9.88
2023-02-06T07:57:55.833Z,9.05
2023-02-06T07:59:58.218Z,9.90
2023-02-06T08:02:01.207Z,11.52
2023-02-06T08:04:04.086Z,10.63
2023-02-06T08:06:14.928Z,9.38
2023-02-06T08:08:17.462Z,9.93
2023-02-06T08:10:19.975Z,10.80
2023-02-06T08:12:22.633Z,8.88
2023-02-06T08:14:25.440Z,10.82
2023-02-06T08:16:28.799Z,9.27
2023-02-06T08:18:31.223Z,9.65
2023-02-06T08:20:34.468Z,9.68
2023-02-06T08:22:37.135Z,9.27
2023-02-06T08:24:39.643Z,10.07
2023-02-06T08:26:43.897Z,11.18
2023-02-06T08:28:50.599Z,9.38
2023-02-06T08:30:53.094Z,11.07
2023-02-06T08:32:55.534Z,9.95
2023-02-06T08:34:57.933Z,11.40
2023-02-06T08:37:00.310Z,10.43
2023-02-06T08:39:04.523Z,8.75
2023-02-06T08:41:17.551Z,9.57
2023-02-06T08:43:20.110Z,8.15
2023-02-06T08:45:22.579Z,10.40
2023-02-06T08:47:25.155Z,10.18
2023-02-06T08:49:27.706Z,8.30
2023-02-06T08:51:30.442Z,10.65
2023-02-06T08:53:33.428Z,9.75
2023-02-06T08:55:35.914Z,8.63
2023-02-06T08:57:38.289Z,9.50
2023-02-06T08:59:41.668Z,9.55
2023-02-06T09:01:45.747Z,10.65
2023-02-06T09:03:48.732Z,9.25
2023-02-06T09:05:52.699Z,11.20
2023-02-06T09:07:56.416Z,11.05
2023-02-06T09:09:58.914Z,11.85
2023-02-06T09:12:03.977Z,10.85
2023-02-06T09:14:07.941Z,8.48
2023-02-06T09:16:11.666Z,9.25
2023-02-06T09:18:14.230Z,11.48
2023-02-06T09:20:16.900Z,9.57
2023-02-06T09:22:19.333Z,8.23
2023-02-06T09:24:21.762Z,11.98
2023-02-06T09:26:26.883Z,11.63
2023-02-06T09:28:29.318Z,11.07
2023-02-06T09:30:31.788Z,10.98
2023-02-06T09:32:34.198Z,9.93
2023-02-06T09:34:36.717Z,9.68
2023-02-06T09:36:39.103Z,10.93
2023-02-06T09:38:44.922Z,10.68
2023-02-06T09:40:47.420Z,11.05
2023-02-06T09:42:49.958Z,10.98
2023-02-06T09:45:01.809Z,9.02
2023-02-06T09:47:28.036Z,9.25
2023-02-06T09:49:37.740Z,9.38
2023-02-06T09:51:52.103Z,9.30
2023-02-06T09:54:05.601Z,10.18
2023-02-06T09:56:37.190Z,10.75
2023-02-06T09:58:44.486Z,10.93
2023-02-06T10:00:52.474Z,8.95
2023-02-06T10:02:59.954Z,9.98
2023-02-06T10:05:14.127Z,8.52
2023-02-06T10:07:19.943Z,7.75
2023-02-06T10:09:56.661Z,10.30
2023-02-06T10:12:15.697Z,10.57
2023-02-06T10:14:22.401Z,10.02
2023-02-06T10:16:44.628Z,10.50
2023-02-06T10:18:50.138Z,9.55
2023-02-06T10:21:06.276Z,10.30
2023-02-06T10:23:48.800Z,11.00
2023-02-06T10:26:04.049Z,11.10
2023-02-06T10:28:26.408Z,12.98
2023-02-06T10:30:54.788Z,12.07
2023-02-06T10:33:14.314Z,12.55
2023-02-06T10:35:29.769Z,9.95
2023-02-06T10:37:51.659Z,10.23
2023-02-06T10:40:06.172Z,12.35
2023-02-06T10:42:47.843Z,9.90
2023-02-06T10:45:19.969Z,13.20
2023-02-06T10:49:56.454Z,12.40
2023-02-06T10:52:02.141Z,9.35
2023-02-06T10:54:11.224Z,9.18
2023-02-06T10:56:17.952Z,12.50
2023-02-06T10:58:27.833Z,11.43
2023-02-06T11:00:31.195Z,9.98
2023-02-06T11:02:42.405Z,10.27
2023-02-06T11:04:56.100Z,13.15
2023-02-06T11:07:02.241Z,12.23
2023-02-06T11:09:04.731Z,9.32
2023-02-06T11:11:22.440Z,9.70
2023-02-06T11:13:35.006Z,9.55
2023-02-06T11:15:58.228Z,10.32
2023-02-06T11:18:02.653Z,9.98
2023-02-06T11:20:35.971Z,9.52
2023-02-06T11:22:51.078Z,9.95
2023-02-06T11:25:07.982Z,12.20
2023-02-06T11:27:17.524Z,9.93
2023-02-06T11:29:37.955Z,11.25
2023-02-06T11:31:44.818Z,9.55
2023-02-06T11:33:54.689Z,10.80
2023-02-06T11:35:59.665Z,10.32
2023-02-06T11:38:18.987Z,10.13
2023-02-06T11:40:24.864Z,10.55
2023-02-06T11:42:28.962Z,11.30
2023-02-06T11:44:40.322Z,10.52
2023-02-06T11:46:42.741Z,10.45
2023-02-06T11:49:01.020Z,10.40
2023-02-06T11:51:04.613Z,10.82
2023-02-06T11:53:14.212Z,12.05
2023-02-06T11:55:25.679Z,10.00
2023-02-06T11:57:29.654Z,11.93
2023-02-06T11:59:34.661Z,11.27
2023-02-06T12:01:45.680Z,10.88
2023-02-06T12:03:51.112Z,11.70
2023-02-06T12:05:54.487Z,10.52
2023-02-06T12:08:05.057Z,10.68
2023-02-06T12:10:19.651Z,9.75
2023-02-06T12:12:33.566Z,10.38
2023-02-06T12:14:46.812Z,8.75
2023-02-06T12:16:50.150Z,10.05
2023-02-06T12:18:57.956Z,10.63
2023-02-06T12:21:06.606Z,10.25
2023-02-06T12:23:27.836Z,10.75
2023-02-06T12:25:35.832Z,12.77
2023-02-06T12:27:40.047Z,11.63
2023-02-06T12:29:55.821Z,10.00
2023-02-06T12:32:19.774Z,14.05
2023-02-06T12:34:46.471Z,13.60
2023-02-06T12:37:20.791Z,12.93
2023-02-06T12:39:30.557Z,13.07
2023-02-06T12:42:09.170Z,15.65
2023-02-06T12:44:30.228Z,9.55
2023-02-06T12:46:32.752Z,11.02
2023-02-06T12:48:38.182Z,11.55
2023-02-06T12:50:48.716Z,16.75
2023-02-06T12:53:12.935Z,12.95
2023-02-06T12:55:18.086Z,11.95
2023-02-06T12:57:24.071Z,11.43
2023-02-06T13:00:00.961Z,13.68
2023-02-06T13:02:40.263Z,16.55
2023-02-06T13:04:43.037Z,13.65
2023-02-06T13:06:48.444Z,9.52
2023-02-06T13:08:56.935Z,16.42
2023-02-06T13:11:21.858Z,9.85
2023-02-06T13:13:28.233Z,11.35
2023-02-06T13:15:40.158Z,13.40
2023-02-06T13:17:43.066Z,15.00
2023-02-06T13:19:45.455Z,12.40
2023-02-06T13:22:16.883Z,13.52
2023-02-06T13:24:20.838Z,10.18
2023-02-06T13:26:43.184Z,15.07
2023-02-06T13:28:56.904Z,15.23
2023-02-06T13:31:03.288Z,15.70
2023-02-06T13:33:21.360Z,12.60
2023-02-06T13:35:29.465Z,10.20
2023-02-06T13:37:35.009Z,11.43
2023-02-06T13:39:37.528Z,12.23
2023-02-06T13:41:42.355Z,11.13
2023-02-06T13:43:47.787Z,15.52
2023-02-06T13:45:57.768Z,14.50
2023-02-06T13:48:10.227Z,15.27
2023-02-06T13:50:39.760Z,10.68
2023-02-06T13:52:51.574Z,12.13
2023-02-06T13:55:06.455Z,9.68
2023-02-06T13:57:29.407Z,12.45
2023-02-06T13:59:50.764Z,12.45
2023-02-06T14:01:54.136Z,11.48
2023-02-06T14:03:57.227Z,10.82
2023-02-06T14:06:08.446Z,11.30
2023-02-06T14:08:44.561Z,10.65
2023-02-06T14:11:16.997Z,11.25
2023-02-06T14:13:34.393Z,13.43
2023-02-06T14:15:54.626Z,14.77
2023-02-06T14:17:57.298Z,13.70
2023-02-06T14:20:32.023Z,14.65
2023-02-06T14:22:57.573Z,14.82
2023-02-06T14:25:15.413Z,13.32
2023-02-06T14:27:17.799Z,12.30
2023-02-06T14:29:28.812Z,11.55
2023-02-06T14:31:36.646Z,12.20
2023-02-06T14:34:05.293Z,15.13
2023-02-06T14:36:07.913Z,13.30
2023-02-06T14:38:51.506Z,12.48
2023-02-06T14:40:56.252Z,16.15
2023-02-06T14:43:01.945Z,15.60
2023-02-06T14:45:09.119Z,17.13
2023-02-06T14:47:21.028Z,18.15
2023-02-06T14:49:35.400Z,17.35
2023-02-06T14:51:39.579Z,12.82
2023-02-06T14:53:43.093Z,12.93
2023-02-06T14:55:47.169Z,12.55
2023-02-06T14:57:49.614Z,12.95
2023-02-06T15:00:06.136Z,14.32
2023-02-06T15:02:17.774Z,12.88
2023-02-06T15:04:23.172Z,13.27
2023-02-06T15:06:34.728Z,13.82
2023-02-06T15:08:37.365Z,13.70
2023-02-06T15:10:39.919Z,12.52
2023-02-06T15:12:44.666Z,18.20
2023-02-06T15:15:02.644Z,12.98
2023-02-06T15:17:05.212Z,11.73
2023-02-06T15:19:12.997Z,14.68
2023-02-06T15:21:19.494Z,13.48
2023-02-06T15:23:40.874Z,12.25
2023-02-06T15:25:46.195Z,13.00
2023-02-06T15:27:48.710Z,12.52
2023-02-06T15:29:51.697Z,13.10
2023-02-06T15:32:06.042Z,13.57
2023-02-06T15:34:19.669Z,14.32
2023-02-06T15:36:29.918Z,14.57
2023-02-06T15:38:33.585Z,16.23
2023-02-06T15:40:42.597Z,15.27
2023-02-06T15:42:45.873Z,16.65
2023-02-06T15:44:49.700Z,17.00
2023-02-06T15:46:52.596Z,19.65
2023-02-06T15:48:57.473Z,19.30
2023-02-06T15:51:02.437Z,21.10
2023-02-06T15:53:28.008Z,22.55
2023-02-06T15:55:35.741Z,17.50
2023-02-06T15:57:42.076Z,20.17
2023-02-06T15:59:45.422Z,22.65
2023-02-06T16:01:50.291Z,28.02
2023-02-06T16:03:55.881Z,26.98
2023-02-06T16:05:58.589Z,25.88
2023-02-06T16:08:01.821Z,29.58
2023-02-06T16:10:20.772Z,29.98
2023-02-06T16:12:24.006Z,39.38
2023-02-06T16:14:34.150Z,37.70
2023-02-06T16:16:36.585Z,26.00
2023-02-06T16:18:40.353Z,26.45
2023-02-06T16:20:44.129Z,26.25
2023-02-06T16:22:46.586Z,23.83
2023-02-06T16:24:50.051Z,21.08
2023-02-06T16:26:52.605Z,27.52
2023-02-06T16:29:02.288Z,26.50
2023-02-06T16:31:05.771Z,37.88
2023-02-06T16:33:41.863Z,19.20
2023-02-06T16:35:44.287Z,32.70
2023-02-06T16:37:46.847Z,33.40
2023-02-06T16:39:49.654Z,25.40
2023-02-06T16:41:53.281Z,34.75
2023-02-06T16:43:56.239Z,49.67
2023-02-06T16:46:02.272Z,46.95
2023-02-06T16:48:06.643Z,30.13
2023-02-06T16:50:10.512Z,27.98
2023-02-06T16:52:20.909Z,22.67
2023-02-06T16:54:26.602Z,19.48
2023-02-06T16:56:29.183Z,29.38
2023-02-06T16:58:34.987Z,29.58
2023-02-06T17:00:39.050Z,23.05
2023-02-06T17:02:41.668Z,25.48
2023-02-06T17:04:44.183Z,25.05
2023-02-06T17:06:46.744Z,20.70
2023-02-06T17:08:49.806Z,23.63
2023-02-06T17:10:52.893Z,23.38
2023-02-06T17:12:55.353Z,22.73
2023-02-06T17:14:58.544Z,26.25
2023-02-06T17:17:03.815Z,20.05
2023-02-06T17:19:06.290Z,20.73
2023-02-06T17:21:10.289Z,22.23
2023-02-06T17:23:12.949Z,19.77
2023-02-06T17:25:15.398Z,18.02
2023-02-06T17:27:22.048Z,20.77
2023-02-06T17:29:25.173Z,19.77
2023-02-06T17:31:27.646Z,21.30
2023-02-06T17:33:30.144Z,22.00
2023-02-06T17:35:33.772Z,23.60
2023-02-06T17:37:36.477Z,22.92
2023-02-06T17:39:39.008Z,23.60
2023-02-06T17:41:41.435Z,21.88
2023-02-06T17:43:43.935Z,23.90
2023-02-06T17:45:46.453Z,25.63
2023-02-06T17:47:49.521Z,28.35
2023-02-06T17:49:52.129Z,24.48
2023-02-06T17:51:56.718Z,29.13
2023-02-06T17:53:59.374Z,28.85
2023-02-06T17:56:12.084Z,27.08
2023-02-06T17:58:14.623Z,27.40
2023-02-06T18:00:19.425Z,25.52
2023-02-06T18:02:22.037Z,21.67
2023-02-06T18:04:24.777Z,23.90
2023-02-06T18:06:27.251Z,22.83
2023-02-06T18:08:30.163Z,25.52
2023-02-06T18:10:32.625Z,24.55
2023-02-06T18:12:35.343Z,30.48
2023-02-06T18:14:39.643Z,36.28
2023-02-06T18:16:42.981Z,26.45
2023-02-06T18:18:45.722Z,26.23
2023-02-06T18:20:48.491Z,28.25
2023-02-06T18:22:50.929Z,29.70
2023-02-06T18:24:53.523Z,30.73
2023-02-06T18:26:56.234Z,29.17
2023-02-06T18:28:58.674Z,26.83
2023-02-06T18:31:02.262Z,23.90
2023-02-06T18:33:04.850Z,31.00
2023-02-06T18:35:08.860Z,33.75
2023-02-06T18:37:11.296Z,35.03
2023-02-06T18:39:13.702Z,33.15
2023-02-06T18:41:39.564Z,27.90
2023-02-06T18:43:42.148Z,36.92
2023-02-06T18:45:44.647Z,45.83
2023-02-06T18:47:47.347Z,37.42
2023-02-06T18:49:49.778Z,18.73
2023-02-06T18:51:52.196Z,22.10
2023-02-06T18:53:54.722Z,23.70
2023-02-06T18:55:58.549Z,25.05
2023-02-06T18:58:01.466Z,17.40
2023-02-06T19:00:06.221Z,26.33
2023-02-06T19:02:10.466Z,30.55
2023-02-06T19:04:12.904Z,53.42
2023-02-06T19:06:20.711Z,49.42
2023-02-06T19:08:23.230Z,28.13
2023-02-06T19:10:25.954Z,39.63
2023-02-06T19:12:29.355Z,37.13
2023-02-06T19:14:32.051Z,31.30
2023-02-06T19:16:38.404Z,33.08
2023-02-06T19:18:42.718Z,32.67
2023-02-06T19:20:45.070Z,44.38
2023-02-06T19:22:47.596Z,34.72
2023-02-06T19:24:53.224Z,37.50
2023-02-06T19:26:56.519Z,32.70
2023-02-06T19:28:59.468Z,24.20
2023-02-06T19:31:02.735Z,29.58
2023-02-06T19:33:05.325Z,25.92
2023-02-06T19:35:08.127Z,25.20
2023-02-06T19:37:11.294Z,22.13
2023-02-06T19:39:14.251Z,21.73
2023-02-06T19:41:20.832Z,23.65
2023-02-06T19:43:23.310Z,29.05
2023-02-06T19:45:25.685Z,33.17
2023-02-06T19:47:28.145Z,34.80
2023-02-06T19:49:30.856Z,36.08
2023-02-06T19:51:36.457Z,32.22
2023-02-06T19:53:45.310Z,24.08
2023-02-06T19:55:49.273Z,31.83
2023-02-06T19:57:51.742Z,40.97
2023-02-06T19:59:54.192Z,31.33
2023-02-06T20:01:58.888Z,33.50
2023-02-06T20:04:02.271Z,29.23
2023-02-06T20:06:07.292Z,22.90
2023-02-06T20:08:09.709Z,24.75
2023-02-06T20:10:12.175Z,25.95
2023-02-06T20:12:14.786Z,24.05
2023-02-06T20:14:18.384Z,17.08
2023-02-06T20:16:24.270Z,18.63
2023-02-06T20:18:27.905Z,19.73
2023-02-06T20:20:33.014Z,22.20
2023-02-06T20:22:35.543Z,20.13
2023-02-06T20:24:37.946Z,21.00
2023-02-06T20:26:42.056Z,24.05
2023-02-06T20:28:44.590Z,23.40
2023-02-06T20:30:47.139Z,27.55
2023-02-06T20:32:49.678Z,24.77
2023-02-06T20:34:52.130Z,14.73
2023-02-06T20:36:55.777Z,18.85
2023-02-06T20:38:59.831Z,17.80
2023-02-06T20:41:03.312Z,19.70
2023-02-06T20:43:05.824Z,18.67
2023-02-06T20:45:08.650Z,16.98
2023-02-06T20:47:11.177Z,19.80
2023-02-06T20:49:16.548Z,18.50
2023-02-06T20:51:19.127Z,16.42
2023-02-06T20:53:21.523Z,15.65
2023-02-06T20:55:24.098Z,15.57
2023-02-06T20:57:26.993Z,14.63
2023-02-06T20:59:29.464Z,16.88
2023-02-06T21:01:32.338Z,16.23
2023-02-06T21:03:34.834Z,17.33
2023-02-06T21:05:37.272Z,18.50
2023-02-06T21:07:40.957Z,17.55
2023-02-06T21:09:44.284Z,17.73
2023-02-06T21:11:49.299Z,17.67
2023-02-06T21:13:51.704Z,14.63
2023-02-06T21:15:56.823Z,17.48
2023-02-06T21:17:59.331Z,14.20
2023-02-06T21:20:01.863Z,15.60
2023-02-06T21:22:04.344Z,15.95
2023-02-06T21:24:07.121Z,16.70
2023-02-06T21:26:12.205Z,17.42
2023-02-06T21:28:14.738Z,18.27
2023-02-06T21:30:17.415Z,18.63
2023-02-06T21:32:19.927Z,21.80
2023-02-06T21:34:25.919Z,21.27
2023-02-06T21:36:29.570Z,22.83
2023-02-06T21:38:32.044Z,23.13
2023-02-06T21:40:34.813Z,24.10
2023-02-06T21:42:37.204Z,29.13
2023-02-06T21:44:39.653Z,25.55
2023-02-06T21:46:42.158Z,27.08
2023-02-06T21:48:44.677Z,26.02
2023-02-06T21:50:47.149Z,28.73
2023-02-06T21:52:49.642Z,29.38
2023-02-06T21:54:52.053Z,29.02
2023-02-06T21:56:54.484Z,36.03
2023-02-06T21:58:58.080Z,38.38
2023-02-06T22:01:00.906Z,32.05
2023-02-06T22:03:03.762Z,33.67
2023-02-06T22:05:09.507Z,30.23
2023-02-06T22:07:13.408Z,32.42
2023-02-06T22:09:18.838Z,48.45
2023-02-06T22:11:27.220Z,60.88
2023-02-06T22:13:29.757Z,55.95
2023-02-06T22:15:32.867Z,57.13
2023-02-06T22:17:35.562Z,54.97
2023-02-06T22:19:37.948Z,51.88
2023-02-06T22:21:40.839Z,53.30
2023-02-06T22:23:44.258Z,55.90
2023-02-06T22:25:49.721Z,51.22
2023-02-06T22:27:52.198Z,43.38
2023-02-06T22:29:55.066Z,38.97
2023-02-06T22:31:58.298Z,43.17
2023-02-06T22:34:01.254Z,44.55
2023-02-06T22:36:12.582Z,45.65
2023-02-06T22:38:15.040Z,42.67
2023-02-06T22:40:17.624Z,40.33
2023-02-06T22:42:20.040Z,36.70
2023-02-06T22:44:22.755Z,37.03
2023-02-06T22:46:27.934Z,33.75
2023-02-06T22:48:30.716Z,25.23
2023-02-06T22:50:35.158Z,28.90
2023-02-06T22:52:55.968Z,29.08
2023-02-06T22:54:58.347Z,28.02
2023-02-06T22:57:00.742Z,24.90
2023-02-06T22:59:10.475Z,27.10
2023-02-06T23:01:13.056Z,27.88
2023-02-06T23:03:15.531Z,35.58
2023-02-06T23:05:17.969Z,39.33
2023-02-06T23:07:20.396Z,35.15
2023-02-06T23:09:32.109Z,35.92
2023-02-06T23:11:35.186Z,47.95
2023-02-06T23:13:38.296Z,34.65
2023-02-06T23:15:41.768Z,27.30
2023-02-06T23:17:44.326Z,30.48
2023-02-06T23:19:46.882Z,28.55
2023-02-06T23:21:51.397Z,33.97
2023-02-06T23:23:56.817Z,36.83
2023-02-06T23:25:59.436Z,36.55
2023-02-06T23:28:01.889Z,38.03
2023-02-06T23:30:04.624Z,39.15
2023-02-06T23:32:07.088Z,33.72
2023-02-06T23:34:09.510Z,35.40
2023-02-06T23:36:15.599Z,30.48
2023-02-06T23:38:18.351Z,28.85
2023-02-06T23:40:20.796Z,29.25
2023-02-06T23:42:23.346Z,33.10
2023-02-06T23:44:25.784Z,31.23
2023-02-06T23:46:29.977Z,29.52
2023-02-06T23:48:32.799Z,32.08
2023-02-06T23:50:35.313Z,33.42
2023-02-06T23:52:37.773Z,33.45
2023-02-06T23:54:40.270Z,34.85
2023-02-06T23:56:42.740Z,33.58
2023-02-06T23:58:45.880Z,36.45
